»·PEaware :: WAT169 KELP-KLAS

WAT169 :: KELP-KLAS

FLIGHT INFORMATION

Flight Status: Arrived
Operator:
Walker Air Transport
More flights by this operator :: More flights under this callsign
Pilot: Marty P. (27464)
Aircraft: BOEING 737-800
(B738)
More flights by this aircraft type
Origin: KELP El Paso Intl
United States
Destination: KLAS McCarran Intl
United States
More flights between these airports :: More routes between these airports
Route: +ATKNN5 GREBE J86 INW BAVPE J86 PGS TYSSN5
File this flight plan on PilotEdge
Remarks:
Altitude:
(Current/Filed)
38,000ft
Speed:
(Current/Filed)
480kts
Departed: 11-Oct-20 08:27 AM
Arrived: 11-Oct-20 09:48 AM
Distance/Time
Traveled:
506nm/1:21
Distance/Time
To Go:
Arrived

Flight Plot

Page will automatically refresh every two minutes.

Flight plan parsing failed; only flown route is shown


Map Options




Map Legend


Flown Route
Filed Route
Departure Airport
Arrival Airport
Navaid (VOR, NDB)
Fix

Horizontal Profiles

Position Reports

Time Latitude Longitude Heading Altitude Ground
Speed
11-Oct-20 08:08 31.799528 -106.394105 349 3925ft 0kts
11-Oct-20 08:09 31.799528 -106.394105 349 3925ft 0kts
11-Oct-20 08:10 31.799528 -106.394105 349 3925ft 0kts
11-Oct-20 08:10 31.799527 -106.394104 349 3925ft 0kts
11-Oct-20 08:12 31.799465 -106.394085 314 3925ft 1kts
11-Oct-20 08:12 31.799370 -106.393688 345 3926ft 1kts
11-Oct-20 08:14 31.799489 -106.392620 76 3928ft 7kts
11-Oct-20 08:14 31.800099 -106.391222 51 3927ft 1kts
11-Oct-20 08:15 31.800111 -106.391204 51 3927ft 0kts
11-Oct-20 08:16 31.800111 -106.391204 51 3927ft 0kts
11-Oct-20 08:17 31.800111 -106.391204 51 3927ft 0kts
11-Oct-20 08:18 31.800111 -106.391204 51 3927ft 0kts
11-Oct-20 08:19 31.800186 -106.390911 97 3927ft 6kts
11-Oct-20 08:20 31.799891 -106.385846 85 3936ft 17kts
11-Oct-20 08:21 31.799914 -106.378830 93 3944ft 22kts
11-Oct-20 08:22 31.799560 -106.371626 93 3954ft 17kts
11-Oct-20 08:23 31.799273 -106.365839 94 3960ft 29kts
11-Oct-20 08:24 31.799578 -106.360400 8 3950ft 0kts
11-Oct-20 08:25 31.800531 -106.360318 352 3951ft 11kts
11-Oct-20 08:26 31.801612 -106.380041 272 3941ft 162kts
11-Oct-20 08:27 31.794937 -106.436656 232 5384ft 207kts
11-Oct-20 08:28 31.770379 -106.506944 276 8319ft 249kts
11-Oct-20 08:29 31.811050 -106.574263 324 10971ft 307kts
11-Oct-20 08:30 31.908290 -106.602737 348 12438ft 398kts
11-Oct-20 08:31 32.017198 -106.629825 333 15514ft 406kts
11-Oct-20 08:32 32.110302 -106.708297 312 17044ft 441kts
11-Oct-20 08:33 32.198165 -106.805660 314 20204ft 431kts
11-Oct-20 08:34 32.286414 -106.903912 309 22201ft 442kts
11-Oct-20 08:35 32.369406 -107.013008 308 24032ft 452kts
11-Oct-20 08:36 32.453829 -107.125323 308 25692ft 462kts
11-Oct-20 08:37 32.539829 -107.240231 308 27197ft 470kts
11-Oct-20 08:38 32.626819 -107.356841 307 28737ft 473kts
11-Oct-20 08:39 32.713207 -107.472994 307 30558ft 467kts
11-Oct-20 08:40 32.798459 -107.588002 307 32153ft 462kts
11-Oct-20 08:41 32.882888 -107.702285 306 33663ft 457kts
11-Oct-20 08:42 32.966084 -107.815275 306 35068ft 452kts
11-Oct-20 08:43 33.048442 -107.927465 307 36330ft 448kts
11-Oct-20 08:44 33.130033 -108.039120 308 37280ft 447kts
11-Oct-20 08:45 33.211431 -108.150587 308 38124ft 446kts
11-Oct-20 08:46 33.293637 -108.264115 308 38192ft 460kts
11-Oct-20 08:47 33.378585 -108.380726 309 38191ft 470kts
11-Oct-20 08:48 33.464999 -108.499159 309 38194ft 475kts
11-Oct-20 08:49 33.551941 -108.618539 310 38209ft 477kts
11-Oct-20 08:50 33.639082 -108.738582 309 38219ft 478kts
11-Oct-20 08:51 33.726214 -108.858989 310 38218ft 479kts
11-Oct-20 08:52 33.813495 -108.979976 311 38219ft 479kts
11-Oct-20 08:53 33.900584 -109.101088 311 38238ft 478kts
11-Oct-20 08:54 33.987002 -109.221672 312 38255ft 478kts
11-Oct-20 08:55 34.073177 -109.342395 313 38255ft 474kts
11-Oct-20 08:56 34.158896 -109.463065 312 38255ft 473kts
11-Oct-20 08:57 34.237989 -109.589607 311 38251ft 474kts
11-Oct-20 08:58 34.320543 -109.713866 314 38224ft 472kts
11-Oct-20 08:59 34.405126 -109.834959 314 38225ft 472kts
11-Oct-20 09:00 34.489747 -109.956830 313 38232ft 472kts
11-Oct-20 09:01 34.573670 -110.078211 314 38219ft 470kts
11-Oct-20 09:02 34.657317 -110.199597 314 38219ft 468kts
11-Oct-20 09:03 34.740393 -110.320576 314 38217ft 465kts
11-Oct-20 09:04 34.822772 -110.440936 314 38179ft 463kts
11-Oct-20 09:05 34.904569 -110.561422 313 38155ft 460kts
11-Oct-20 09:06 34.985417 -110.681540 313 38155ft 457kts
11-Oct-20 09:07 35.063675 -110.803954 307 38156ft 459kts
11-Oct-20 09:08 35.130880 -110.936514 306 38155ft 459kts
11-Oct-20 09:09 35.196912 -111.069865 306 38155ft 459kts
11-Oct-20 09:10 35.262472 -111.203260 306 38178ft 457kts
11-Oct-20 09:11 35.327602 -111.336421 306 38223ft 455kts
11-Oct-20 09:12 35.392197 -111.469016 306 38237ft 453kts
11-Oct-20 09:13 35.456152 -111.600804 306 38237ft 450kts
11-Oct-20 09:14 35.519891 -111.732779 306 38237ft 448kts
11-Oct-20 09:15 35.576877 -111.868783 294 38229ft 456kts
11-Oct-20 09:16 35.594106 -112.025466 280 38225ft 470kts
11-Oct-20 09:17 35.599210 -112.186022 280 38224ft 470kts
11-Oct-20 09:18 35.604137 -112.347059 280 37859ft 479kts
11-Oct-20 09:19 35.607651 -112.507712 280 35845ft 453kts
11-Oct-20 09:20 35.610668 -112.659192 280 33850ft 443kts
11-Oct-20 09:21 35.613787 -112.812321 278 31853ft 451kts
11-Oct-20 09:22 35.616762 -112.967695 277 29848ft 461kts
11-Oct-20 09:23 35.619579 -113.126575 276 27832ft 460kts
11-Oct-20 09:24 35.622122 -113.281439 275 25683ft 448kts
11-Oct-20 09:25 35.624368 -113.430913 274 22765ft 427kts
11-Oct-20 09:26 35.630985 -113.572145 280 20277ft 400kts
11-Oct-20 09:27 35.648699 -113.707920 281 19279ft 400kts
11-Oct-20 09:28 35.667402 -113.841932 281 19099ft 399kts
11-Oct-20 09:29 35.686046 -113.975200 280 17110ft 385kts
11-Oct-20 09:30 35.703196 -114.098632 280 15384ft 347kts
11-Oct-20 09:31 35.718036 -114.205446 280 13680ft 294kts
11-Oct-20 09:32 35.731532 -114.303190 279 12260ft 285kts
11-Oct-20 09:33 35.763372 -114.390036 322 11999ft 292kts
11-Oct-20 09:34 35.838685 -114.428755 337 11853ft 296kts
11-Oct-20 09:35 35.913014 -114.463228 336 10822ft 271kts
11-Oct-20 09:36 35.979385 -114.494339 336 9984ft 244kts
11-Oct-20 09:37 36.034367 -114.539884 302 9779ft 242kts
11-Oct-20 09:38 36.054146 -114.616173 280 8592ft 234kts
11-Oct-20 09:39 36.067504 -114.694206 280 8022ft 234kts
11-Oct-20 09:40 36.073317 -114.769624 268 7874ft 200kts
11-Oct-20 09:41 36.073249 -114.838086 269 6732ft 198kts
11-Oct-20 09:42 36.073406 -114.905691 269 5615ft 196kts
11-Oct-20 09:43 36.073541 -114.972759 269 4524ft 194kts
11-Oct-20 09:44 36.073620 -115.036320 269 3501ft 164kts
11-Oct-20 09:45 36.073635 -115.091648 271 2638ft 160kts
11-Oct-20 09:47 36.073665 -115.141272 270 2091ft 54kts
11-Oct-20 09:48 36.074709 -115.145870 300 2104ft 0kts
11-Oct-20 09:49 36.074710 -115.145871 300 2104ft 0kts
11-Oct-20 09:50 36.078155 -115.147135 339 2103ft 14kts
11-Oct-20 09:51 36.079922 -115.147049 64 2098ft 0kts

Navigation Log

Ident Type
Flight plan parsing failed, navigation log unavailable